Time;durP1;ratioP1;P1;durP2;ratioP2;P2;SDS_P1;SDS_P2;PMS_P1;PMS_P2;Temp;Humidity;BMP_temperature;BMP_pressure;BME280_temperature;BME280_humidity;BME280_pressure;Samples;Min_cycle;Max_cycle;Signal;HPM_P1;HPM_P2
2023/02/20 00:01:55;;;;;;;;;104.75;70.25;;;;;;;;5039546;28;51631;-54
2023/02/20 00:04:39;;;;;;;;;100.00;71.75;;;;;;;;5039384;28;51279;-53
2023/02/20 00:07:24;;;;;;;;;93.00;68.50;;;;;;;;5039563;28;51116;-53
2023/02/20 00:10:08;;;;;;;;;94.50;62.75;;;;;;;;5039001;28;51052;-53
2023/02/20 00:12:53;;;;;;;;;89.75;66.50;;;;;;;;5039552;28;51573;-55
2023/02/20 00:15:37;;;;;;;;;88.50;62.00;;;;;;;;5039043;28;51077;-54
2023/02/20 00:18:22;;;;;;;;;99.75;68.25;;;;;;;;5039472;28;51119;-54
2023/02/20 00:21:06;;;;;;;;;98.25;70.25;;;;;;;;5038826;28;51080;-52
2023/02/20 00:23:50;;;;;;;;;104.00;66.00;;;;;;;;5039160;28;51538;-55
2023/02/20 00:26:35;;;;;;;;;96.00;65.50;;;;;;;;5039345;28;51622;-54
2023/02/20 00:29:21;;;;;;;;;82.25;54.75;;;;;;;;5038717;28;51004;-55
2023/02/20 00:32:05;;;;;;;;;88.75;68.25;;;;;;;;5039102;28;51167;-51
2023/02/20 00:34:49;;;;;;;;;102.00;71.75;;;;;;;;5038958;28;51100;-54
2023/02/20 00:37:34;;;;;;;;;79.50;66.25;;;;;;;;5039218;28;51655;-56
2023/02/20 00:40:19;;;;;;;;;102.25;70.75;;;;;;;;5038684;28;51247;-55
2023/02/20 00:43:03;;;;;;;;;96.00;70.75;;;;;;;;5042256;28;51104;-55
2023/02/20 00:45:48;;;;;;;;;97.25;73.50;;;;;;;;5043079;28;51399;-51
2023/02/20 00:48:32;;;;;;;;;88.75;61.75;;;;;;;;5043223;28;51188;-54
2023/02/20 00:51:17;;;;;;;;;100.25;69.50;;;;;;;;5042884;28;51099;-53
2023/02/20 00:54:01;;;;;;;;;87.25;65.75;;;;;;;;5042851;28;51067;-55
2023/02/20 00:56:45;;;;;;;;;99.00;66.75;;;;;;;;5043045;28;51193;-55
2023/02/20 00:59:30;;;;;;;;;103.25;71.50;;;;;;;;5042640;28;51227;-53
2023/02/20 01:02:14;;;;;;;;;98.50;71.25;;;;;;;;5042789;28;51561;-52
2023/02/20 01:04:58;;;;;;;;;94.75;68.75;;;;;;;;5042685;28;51109;-52
2023/02/20 01:07:43;;;;;;;;;97.75;68.00;;;;;;;;5042933;28;51154;-54
2023/02/20 01:10:27;;;;;;;;;95.75;67.50;;;;;;;;5042258;28;51086;-55
2023/02/20 01:13:12;;;;;;;;;77.00;49.50;;;;;;;;5042444;28;51087;-53
2023/02/20 01:15:56;;;;;;;;;84.75;59.25;;;;;;;;5042651;28;51596;-55
2023/02/20 01:18:41;;;;;;;;;103.50;68.50;;;;;;;;5042406;28;53045;-52
2023/02/20 01:21:25;;;;;;;;;93.00;67.75;;;;;;;;5041449;28;51239;-55
2023/02/20 01:24:10;;;;;;;;;96.25;71.75;;;;;;;;5042360;28;51395;-56
2023/02/20 01:26:54;;;;;;;;;96.25;71.25;;;;;;;;5042622;28;51648;-54
2023/02/20 01:29:39;;;;;;;;;95.00;69.00;;;;;;;;5042304;28;51570;-51
2023/02/20 01:32:23;;;;;;;;;103.00;69.75;;;;;;;;5042431;28;51153;-57
2023/02/20 01:35:08;;;;;;;;;93.00;70.25;;;;;;;;5042303;28;51476;-55
2023/02/20 01:37:52;;;;;;;;;98.00;66.25;;;;;;;;5042070;28;51079;-56
2023/02/20 01:40:36;;;;;;;;;97.50;65.75;;;;;;;;5036756;28;51690;-49
2023/02/20 01:43:21;;;;;;;;;111.75;74.25;;;;;;;;5041786;28;51005;-57
2023/02/20 01:46:24;;;;;;;;;98.00;70.00;;;;;;;;5042248;28;51170;-53
2023/02/20 01:49:14;;;;;;;;;101.00;70.00;;;;;;;;5037318;28;51790;-54
2023/02/20 01:52:01;;;;;;;;;88.50;68.50;;;;;;;;5041934;28;51145;-55
2023/02/20 01:54:56;;;;;;;;;96.25;66.75;;;;;;;;4979175;28;51263;-53
2023/02/20 01:57:41;;;;;;;;;92.00;68.75;;;;;;;;4979932;28;51080;-56
2023/02/20 02:00:25;;;;;;;;;104.75;68.75;;;;;;;;4976585;28;51176;-52
2023/02/20 02:03:14;;;;;;;;;95.75;71.50;;;;;;;;4979956;28;51276;-53
2023/02/20 02:06:00;;;;;;;;;106.00;71.00;;;;;;;;4979808;28;51810;-52
2023/02/20 02:08:45;;;;;;;;;95.75;74.00;;;;;;;;4979402;28;51163;-51
2023/02/20 02:11:29;;;;;;;;;90.00;67.75;;;;;;;;4979552;28;51114;-55
2023/02/20 02:14:13;;;;;;;;;94.25;67.25;;;;;;;;4979665;28;51154;-50
2023/02/20 02:17:15;;;;;;;;;89.00;71.50;;;;;;;;4979799;28;51180;-52
2023/02/20 02:20:05;;;;;;;;;97.00;70.00;;;;;;;;4979051;28;51147;-55
2023/02/20 02:22:49;;;;;;;;;108.75;69.50;;;;;;;;4979328;28;51581;-53
2023/02/20 02:25:47;;;;;;;;;107.00;70.25;;;;;;;;4979087;28;51187;-54
2023/02/20 02:28:49;;;;;;;;;105.50;69.25;;;;;;;;4979141;28;51148;-54
2023/02/20 02:31:36;;;;;;;;;102.50;65.75;;;;;;;;5000675;28;51024;-54
2023/02/20 02:34:39;;;;;;;;;111.00;72.50;;;;;;;;5040901;28;51049;-56
2023/02/20 02:37:23;;;;;;;;;95.75;68.75;;;;;;;;5041117;28;51103;-52
2023/02/20 02:40:07;;;;;;;;;93.00;62.75;;;;;;;;5040953;28;52071;-52
2023/02/20 02:43:12;;;;;;;;;109.25;76.75;;;;;;;;5040749;28;51713;-56
2023/02/20 02:46:03;;;;;;;;;104.75;71.00;;;;;;;;5037716;28;51136;-53
2023/02/20 02:48:54;;;;;;;;;94.75;73.75;;;;;;;;5040994;28;51155;-54
2023/02/20 02:51:44;;;;;;;;;91.50;70.25;;;;;;;;5037556;28;51218;-54
2023/02/20 02:54:28;;;;;;;;;98.00;72.75;;;;;;;;5040798;28;51103;-55
2023/02/20 02:57:16;;;;;;;;;103.00;68.75;;;;;;;;5040822;28;51179;-52
2023/02/20 03:00:02;;;;;;;;;105.25;75.25;;;;;;;;5040398;28;51105;-55
2023/02/20 03:03:04;;;;;;;;;90.25;67.00;;;;;;;;5040458;28;50950;-51
2023/02/20 03:05:56;;;;;;;;;98.00;72.75;;;;;;;;5040348;28;51541;-55
2023/02/20 03:08:43;;;;;;;;;97.50;73.75;;;;;;;;5040211;28;50977;-54
2023/02/20 03:11:32;;;;;;;;;102.75;73.50;;;;;;;;5040288;28;51445;-54
2023/02/20 03:17:29;;;;;;;;;101.75;75.00;;;;;;;;5040084;28;51538;-52
2023/02/20 03:20:17;;;;;;;;;97.75;67.25;;;;;;;;5040131;28;51150;-55
2023/02/20 03:23:03;;;;;;;;;100.00;69.25;;;;;;;;5040228;28;51719;-53
2023/02/20 03:25:51;;;;;;;;;94.75;69.00;;;;;;;;5040123;28;51042;-54
2023/02/20 03:28:38;;;;;;;;;86.00;55.75;;;;;;;;5039983;28;51140;-51
2023/02/20 03:31:33;;;;;;;;;100.00;73.00;;;;;;;;5040015;28;51554;-53
2023/02/20 03:43:37;;;;;;;;;95.00;68.75;;;;;;;;5039658;28;51179;-57
2023/02/20 03:46:23;;;;;;;;;101.25;73.00;;;;;;;;5039648;28;51069;-54
2023/02/20 03:49:10;;;;;;;;;97.00;68.00;;;;;;;;5028874;28;51620;-53
2023/02/20 03:51:54;;;;;;;;;92.75;63.00;;;;;;;;5019491;28;51010;-52
2023/02/20 03:54:39;;;;;;;;;104.50;71.25;;;;;;;;5019319;28;51317;-54
2023/02/20 03:57:27;;;;;;;;;103.00;67.50;;;;;;;;5019524;28;51103;-52
2023/02/20 04:00:15;;;;;;;;;95.00;67.00;;;;;;;;5019307;28;51311;-56
2023/02/20 04:03:02;;;;;;;;;105.25;73.25;;;;;;;;5018990;28;51149;-54
2023/02/20 04:05:48;;;;;;;;;100.50;66.25;;;;;;;;5019905;28;51168;-53
2023/02/20 04:08:55;;;;;;;;;79.75;55.25;;;;;;;;5038431;28;51191;-53
2023/02/20 04:11:45;;;;;;;;;109.50;72.75;;;;;;;;5038580;28;51223;-54
2023/02/20 04:14:30;;;;;;;;;101.75;73.50;;;;;;;;5034611;28;51125;-54
2023/02/20 04:17:17;;;;;;;;;100.25;79.00;;;;;;;;5018916;28;51221;-54
2023/02/20 04:20:02;;;;;;;;;97.00;69.00;;;;;;;;5028829;28;51267;-54
2023/02/20 04:22:48;;;;;;;;;97.75;72.25;;;;;;;;5039385;28;51183;-55
2023/02/20 04:25:41;;;;;;;;;98.50;68.00;;;;;;;;5039182;28;51128;-55
2023/02/20 04:28:26;;;;;;;;;104.00;73.00;;;;;;;;5039074;28;51091;-57
2023/02/20 04:31:12;;;;;;;;;94.25;64.75;;;;;;;;5039121;28;51171;-54
2023/02/20 04:33:57;;;;;;;;;102.25;71.50;;;;;;;;5038961;28;51407;-53
2023/02/20 04:36:41;;;;;;;;;103.00;72.50;;;;;;;;5039037;28;51112;-56
2023/02/20 04:39:25;;;;;;;;;95.75;73.25;;;;;;;;5039035;28;51080;-50
2023/02/20 04:42:10;;;;;;;;;92.50;77.50;;;;;;;;5039032;28;51072;-54
2023/02/20 04:44:54;;;;;;;;;96.75;71.25;;;;;;;;5038997;28;51430;-55
2023/02/20 04:47:38;;;;;;;;;98.50;74.00;;;;;;;;5038976;28;51068;-55
2023/02/20 04:50:28;;;;;;;;;89.50;71.75;;;;;;;;5038919;28;51376;-56
2023/02/20 04:53:12;;;;;;;;;105.25;73.50;;;;;;;;5038798;28;51115;-52
2023/02/20 04:55:57;;;;;;;;;93.50;70.25;;;;;;;;5039310;28;51131;-54
2023/02/20 04:58:45;;;;;;;;;99.00;74.75;;;;;;;;5038726;28;51464;-54
2023/02/20 05:01:29;;;;;;;;;104.25;74.50;;;;;;;;5038692;28;51001;-54
2023/02/20 05:04:14;;;;;;;;;98.00;72.25;;;;;;;;5038739;28;51069;-53
2023/02/20 05:06:59;;;;;;;;;106.50;75.00;;;;;;;;5039089;28;51115;-55
2023/02/20 05:09:43;;;;;;;;;100.75;76.25;;;;;;;;5038453;28;51326;-55
2023/02/20 05:12:27;;;;;;;;;106.00;72.50;;;;;;;;5038720;28;51145;-54
2023/02/20 05:15:12;;;;;;;;;101.75;76.00;;;;;;;;5038680;28;51150;-54
2023/02/20 05:17:56;;;;;;;;;104.50;75.50;;;;;;;;5038489;28;51099;-53
2023/02/20 05:23:46;;;;;;;;;112.50;78.75;;;;;;;;5038767;28;51535;-52
2023/02/20 05:26:31;;;;;;;;;117.25;84.25;;;;;;;;5038555;28;51094;-51
2023/02/20 05:29:15;;;;;;;;;120.75;77.25;;;;;;;;5041226;28;51155;-55
2023/02/20 05:32:00;;;;;;;;;122.25;86.50;;;;;;;;5042341;28;51048;-54
2023/02/20 05:34:44;;;;;;;;;109.75;81.75;;;;;;;;5042036;28;51093;-57
2023/02/20 05:37:28;;;;;;;;;119.00;80.25;;;;;;;;5042180;28;51576;-55
2023/02/20 05:40:13;;;;;;;;;106.50;81.25;;;;;;;;5038114;28;51499;-52
2023/02/20 05:42:57;;;;;;;;;102.50;80.75;;;;;;;;5042011;28;51092;-54
2023/02/20 05:45:42;;;;;;;;;106.75;77.75;;;;;;;;5042057;28;51097;-51
2023/02/20 05:48:26;;;;;;;;;116.00;83.00;;;;;;;;5041679;28;51566;-51
2023/02/20 05:51:18;;;;;;;;;118.50;81.25;;;;;;;;5041938;28;51123;-54
2023/02/20 05:54:03;;;;;;;;;110.00;82.75;;;;;;;;5042009;28;51184;-54
2023/02/20 05:56:48;;;;;;;;;116.75;84.75;;;;;;;;5042106;28;51100;-57
2023/02/20 05:59:32;;;;;;;;;98.50;68.00;;;;;;;;5041628;28;51462;-54
2023/02/20 06:02:16;;;;;;;;;116.25;84.75;;;;;;;;5041958;28;51216;-52
2023/02/20 06:05:01;;;;;;;;;120.50;89.50;;;;;;;;5041993;28;51519;-53
2023/02/20 06:07:45;;;;;;;;;108.00;81.25;;;;;;;;5041379;28;51001;-54
2023/02/20 06:10:29;;;;;;;;;106.75;83.50;;;;;;;;5041549;28;51037;-56
2023/02/20 06:13:14;;;;;;;;;115.25;85.00;;;;;;;;5041362;28;51380;-53
2023/02/20 06:15:58;;;;;;;;;114.75;82.50;;;;;;;;5041419;28;51183;-53
2023/02/20 06:18:42;;;;;;;;;121.00;88.25;;;;;;;;5041258;28;51053;-53
2023/02/20 06:21:27;;;;;;;;;122.25;81.25;;;;;;;;5041799;28;51075;-53
2023/02/20 06:24:11;;;;;;;;;106.25;81.00;;;;;;;;5041236;28;51464;-57
2023/02/20 06:26:56;;;;;;;;;102.00;75.50;;;;;;;;5041057;28;51238;-52
2023/02/20 06:29:40;;;;;;;;;112.75;82.00;;;;;;;;5041068;28;51557;-55
2023/02/20 06:32:24;;;;;;;;;117.00;84.75;;;;;;;;5035993;28;51297;-53
2023/02/20 06:35:09;;;;;;;;;104.50;84.50;;;;;;;;5041254;28;51162;-55
2023/02/20 06:37:53;;;;;;;;;112.75;85.25;;;;;;;;5040921;28;51080;-43
2023/02/20 06:40:38;;;;;;;;;112.75;82.75;;;;;;;;5040637;28;51140;-43
2023/02/20 06:43:22;;;;;;;;;103.75;82.75;;;;;;;;5040909;28;51016;-43
2023/02/20 06:52:57;;;;;;;;;125.50;93.50;;;;;;;;5040607;28;51116;-43
2023/02/20 06:56:05;;;;;;;;;114.00;87.00;;;;;;;;5040683;28;51141;-45
2023/02/20 06:58:56;;;;;;;;;114.25;87.50;;;;;;;;5040278;28;51164;-44
2023/02/20 07:01:41;;;;;;;;;122.75;86.25;;;;;;;;5040409;28;51048;-44
2023/02/20 07:04:25;;;;;;;;;112.25;80.25;;;;;;;;5040611;28;51480;-43
2023/02/20 07:07:10;;;;;;;;;129.75;86.00;;;;;;;;5040617;28;51082;-42
2023/02/20 07:09:54;;;;;;;;;113.00;88.00;;;;;;;;5040165;28;51150;-43
2023/02/20 07:12:39;;;;;;;;;112.50;81.75;;;;;;;;5040799;28;51481;-42
2023/02/20 07:15:23;;;;;;;;;121.50;84.50;;;;;;;;5040284;28;51185;-42
2023/02/20 07:18:07;;;;;;;;;121.50;82.25;;;;;;;;5039410;28;51335;-43
2023/02/20 07:20:55;;;;;;;;;119.00;85.25;;;;;;;;5028923;28;51634;-44
2023/02/20 07:23:39;;;;;;;;;99.50;79.25;;;;;;;;5009809;28;51261;-47
2023/02/20 07:26:25;;;;;;;;;115.00;77.75;;;;;;;;4992309;28;51109;-41
2023/02/20 07:29:11;;;;;;;;;85.25;72.75;;;;;;;;5011400;28;51105;-42
2023/02/20 07:31:55;;;;;;;;;124.75;81.50;;;;;;;;5009709;28;51599;-41
2023/02/20 07:34:40;;;;;;;;;111.50;79.00;;;;;;;;5014854;28;51105;-41
2023/02/20 07:37:24;;;;;;;;;112.25;79.25;;;;;;;;5012265;28;51164;-42
2023/02/20 07:40:09;;;;;;;;;110.50;76.50;;;;;;;;5009634;28;51396;-42
2023/02/20 07:42:53;;;;;;;;;100.50;75.25;;;;;;;;5000267;28;52305;-42
2023/02/20 07:45:38;;;;;;;;;104.00;76.25;;;;;;;;5016227;28;51595;-41
2023/02/20 07:48:22;;;;;;;;;110.00;80.25;;;;;;;;5006554;28;52356;-43
2023/02/20 07:51:07;;;;;;;;;100.25;82.25;;;;;;;;5011793;28;51230;-42
2023/02/20 07:53:53;;;;;;;;;108.00;81.50;;;;;;;;5012887;28;52425;-42
2023/02/20 07:56:39;;;;;;;;;105.25;81.75;;;;;;;;5010206;28;51370;-42
2023/02/20 07:59:23;;;;;;;;;107.50;79.75;;;;;;;;5016162;28;51308;-42
2023/02/20 08:02:08;;;;;;;;;102.25;78.00;;;;;;;;5015456;28;51026;-42
2023/02/20 08:04:52;;;;;;;;;108.50;80.75;;;;;;;;5016860;28;51384;-42
2023/02/20 08:07:51;;;;;;;;;102.25;77.00;;;;;;;;4957705;28;51194;-43
2023/02/20 08:10:35;;;;;;;;;104.25;78.50;;;;;;;;4957937;28;51176;-42
2023/02/20 08:13:19;;;;;;;;;108.25;80.75;;;;;;;;4960279;28;51117;-42
2023/02/20 08:16:04;;;;;;;;;110.75;79.75;;;;;;;;4959542;28;51281;-44
2023/02/20 08:18:48;;;;;;;;;108.50;81.00;;;;;;;;4956546;28;51138;-44
2023/02/20 08:21:32;;;;;;;;;108.00;82.75;;;;;;;;4955221;28;51172;-43
2023/02/20 08:27:05;;;;;;;;;97.25;77.25;;;;;;;;4921860;28;51319;-44
2023/02/20 08:29:49;;;;;;;;;104.50;77.25;;;;;;;;4921398;28;51757;-42
2023/02/20 08:32:34;;;;;;;;;104.00;77.25;;;;;;;;4922529;28;51241;-43
2023/02/20 08:35:18;;;;;;;;;106.00;79.50;;;;;;;;4922527;28;51080;-44
2023/02/20 08:38:04;;;;;;;;;106.50;78.25;;;;;;;;4917015;28;52292;-41
2023/02/20 08:40:48;;;;;;;;;99.75;73.25;;;;;;;;4918961;28;51127;-42
2023/02/20 08:43:33;;;;;;;;;102.75;72.50;;;;;;;;4940901;28;51255;-42
2023/02/20 08:46:17;;;;;;;;;106.75;77.25;;;;;;;;4955935;28;51809;-42
2023/02/20 08:49:01;;;;;;;;;112.00;79.00;;;;;;;;4952602;28;51181;-43
2023/02/20 08:51:54;;;;;;;;;88.00;71.25;;;;;;;;4935048;28;51172;-41
2023/02/20 08:54:38;;;;;;;;;109.00;83.75;;;;;;;;4935346;28;51495;-42
2023/02/20 08:57:23;;;;;;;;;100.50;76.50;;;;;;;;4935199;28;51166;-42
2023/02/20 09:00:09;;;;;;;;;102.50;78.25;;;;;;;;4935173;28;52437;-44
2023/02/20 09:02:54;;;;;;;;;66.00;52.50;;;;;;;;4936552;28;51227;-42
2023/02/20 09:05:38;;;;;;;;;106.75;75.00;;;;;;;;4997933;28;51701;-43
2023/02/20 09:08:22;;;;;;;;;104.25;73.50;;;;;;;;4996039;28;51690;-44
2023/02/20 09:11:07;;;;;;;;;88.00;70.75;;;;;;;;4996459;28;51083;-42
2023/02/20 09:13:51;;;;;;;;;93.25;67.50;;;;;;;;4992382;28;51258;-42
2023/02/20 09:16:35;;;;;;;;;96.50;69.50;;;;;;;;4998103;28;51312;-42
2023/02/20 09:19:20;;;;;;;;;99.25;69.50;;;;;;;;4987200;28;51345;-41
2023/02/20 09:22:04;;;;;;;;;80.25;63.50;;;;;;;;4998703;28;51297;-42
2023/02/20 09:24:49;;;;;;;;;97.50;70.50;;;;;;;;4990850;28;51789;-41
2023/02/20 09:27:33;;;;;;;;;92.75;65.50;;;;;;;;4989633;28;51142;-41
2023/02/20 09:30:19;;;;;;;;;80.75;58.50;;;;;;;;5020295;28;51063;-43
2023/02/20 09:33:04;;;;;;;;;91.00;67.75;;;;;;;;5022476;28;51522;-41
2023/02/20 09:35:50;;;;;;;;;94.25;65.00;;;;;;;;5021733;28;51166;-42
2023/02/20 09:38:35;;;;;;;;;99.25;72.50;;;;;;;;5021584;28;51141;-41
2023/02/20 09:41:45;;;;;;;;;100.00;70.00;;;;;;;;5015650;28;51541;-42
2023/02/20 09:44:29;;;;;;;;;86.25;63.50;;;;;;;;5013942;28;51383;-42
2023/02/20 09:47:29;;;;;;;;;79.75;61.50;;;;;;;;5016490;28;51170;-42
2023/02/20 09:50:43;;;;;;;;;75.75;55.50;;;;;;;;5020096;28;51222;-42
2023/02/20 09:53:34;;;;;;;;;90.25;67.50;;;;;;;;5014800;28;51208;-41
2023/02/20 09:56:20;;;;;;;;;76.25;55.50;;;;;;;;5020215;28;51094;-41
2023/02/20 10:01:55;;;;;;;;;95.50;72.75;;;;;;;;4911820;28;51666;-42
2023/02/20 10:04:42;;;;;;;;;85.50;68.50;;;;;;;;4912090;28;51195;-44
2023/02/20 10:07:28;;;;;;;;;91.00;62.00;;;;;;;;4911220;28;51198;-41
2023/02/20 10:10:20;;;;;;;;;96.50;75.50;;;;;;;;4914997;28;51204;-43
2023/02/20 10:13:23;;;;;;;;;101.75;83.50;;;;;;;;4921465;28;51124;-44
2023/02/20 10:16:19;;;;;;;;;116.00;88.00;;;;;;;;4921445;28;51529;-42
2023/02/20 10:19:03;;;;;;;;;91.00;73.50;;;;;;;;4922449;28;51125;-45
2023/02/20 10:22:01;;;;;;;;;76.25;63.50;;;;;;;;4958154;28;51277;-45
2023/02/20 10:24:55;;;;;;;;;81.75;63.00;;;;;;;;4922601;28;51670;-45
2023/02/20 10:27:39;;;;;;;;;76.75;58.75;;;;;;;;4913762;28;51226;-43
2023/02/20 10:30:30;;;;;;;;;89.50;61.50;;;;;;;;4919882;28;51237;-43
2023/02/20 10:33:36;;;;;;;;;82.00;58.00;;;;;;;;4918416;28;51047;-43
2023/02/20 10:36:23;;;;;;;;;76.00;55.25;;;;;;;;4920928;28;51211;-43
2023/02/20 10:39:09;;;;;;;;;83.50;62.00;;;;;;;;4942092;28;51181;-42
2023/02/20 10:41:55;;;;;;;;;74.00;49.50;;;;;;;;4979075;28;51136;-42
2023/02/20 10:44:58;;;;;;;;;75.50;57.25;;;;;;;;4977286;28;51209;-43
2023/02/20 10:47:49;;;;;;;;;74.25;56.00;;;;;;;;4979283;28;51587;-43
2023/02/20 10:50:39;;;;;;;;;78.75;56.75;;;;;;;;4975462;28;51159;-43
2023/02/20 10:53:25;;;;;;;;;81.50;58.50;;;;;;;;4972989;28;52381;-44
2023/02/20 10:58:58;;;;;;;;;85.50;58.00;;;;;;;;4959434;28;51333;-43
2023/02/20 11:01:45;;;;;;;;;76.50;56.50;;;;;;;;4981383;28;52015;-44
2023/02/20 11:04:53;;;;;;;;;74.25;50.75;;;;;;;;4978870;28;51157;-42
2023/02/20 11:07:38;;;;;;;;;69.75;51.50;;;;;;;;4978091;28;51170;-43
2023/02/20 11:10:22;;;;;;;;;82.25;59.00;;;;;;;;4974851;28;51105;-42
2023/02/20 11:13:12;;;;;;;;;77.50;58.00;;;;;;;;4974572;28;51082;-42
2023/02/20 11:15:57;;;;;;;;;78.75;58.25;;;;;;;;4978430;28;51318;-43
2023/02/20 11:18:42;;;;;;;;;71.00;51.75;;;;;;;;4978708;28;51554;-44
2023/02/20 11:21:35;;;;;;;;;71.50;54.00;;;;;;;;4974999;28;51294;-42
2023/02/20 11:24:33;;;;;;;;;72.00;50.50;;;;;;;;4978022;28;51208;-44
2023/02/20 11:27:17;;;;;;;;;80.25;59.75;;;;;;;;4974132;28;51227;-42
2023/02/20 11:30:20;;;;;;;;;74.50;51.75;;;;;;;;4975847;28;51141;-42
2023/02/20 11:33:14;;;;;;;;;83.75;57.00;;;;;;;;4973555;28;51557;-47
2023/02/20 11:36:08;;;;;;;;;77.50;53.00;;;;;;;;5011876;28;51190;-42
2023/02/20 11:38:59;;;;;;;;;76.50;56.00;;;;;;;;5039863;28;51186;-42
2023/02/20 11:41:44;;;;;;;;;76.00;51.25;;;;;;;;5028847;28;51393;-43
2023/02/20 11:44:28;;;;;;;;;70.75;46.25;;;;;;;;5039893;28;51679;-43
2023/02/20 11:47:22;;;;;;;;;72.75;54.25;;;;;;;;5038486;28;51196;-43
2023/02/20 11:50:09;;;;;;;;;80.25;53.75;;;;;;;;5040194;28;51121;-43
2023/02/20 11:52:54;;;;;;;;;76.75;51.25;;;;;;;;5039016;28;51612;-45
2023/02/20 11:55:39;;;;;;;;;74.50;58.25;;;;;;;;5039836;28;51143;-43
2023/02/20 11:58:24;;;;;;;;;77.75;54.50;;;;;;;;5039737;28;51199;-43
2023/02/20 12:01:38;;;;;;;;;82.50;55.50;;;;;;;;5035647;28;51144;-42
2023/02/20 12:04:23;;;;;;;;;75.00;57.50;;;;;;;;5034016;28;50992;-43
2023/02/20 12:07:18;;;;;;;;;78.75;54.75;;;;;;;;5039054;28;51544;-45
2023/02/20 12:10:12;;;;;;;;;83.00;58.25;;;;;;;;5037994;28;52758;-44
2023/02/20 12:12:57;;;;;;;;;78.75;57.25;;;;;;;;5029450;28;51159;-44
2023/02/20 12:15:42;;;;;;;;;70.00;51.25;;;;;;;;5024798;28;51069;-43
2023/02/20 12:18:45;;;;;;;;;76.00;52.25;;;;;;;;5034214;28;51523;-43
2023/02/20 12:21:42;;;;;;;;;65.50;46.25;;;;;;;;5018966;28;51138;-41
2023/02/20 12:24:45;;;;;;;;;75.25;55.50;;;;;;;;5011557;28;51086;-44
2023/02/20 12:27:35;;;;;;;;;74.25;51.75;;;;;;;;5016887;28;51386;-43
2023/02/20 12:30:19;;;;;;;;;80.75;58.75;;;;;;;;5017947;28;51390;-43
2023/02/20 12:33:31;;;;;;;;;74.50;52.25;;;;;;;;5019635;28;51181;-42
2023/02/20 12:36:36;;;;;;;;;71.50;53.00;;;;;;;;5018742;28;51663;-45
2023/02/20 12:39:34;;;;;;;;;75.00;53.50;;;;;;;;5021609;28;51193;-41
2023/02/20 12:42:26;;;;;;;;;74.00;53.50;;;;;;;;5023411;28;51155;-43
2023/02/20 12:45:10;;;;;;;;;79.25;56.50;;;;;;;;5022624;28;51061;-44
2023/02/20 12:48:08;;;;;;;;;76.75;52.50;;;;;;;;5021010;28;51208;-42
2023/02/20 12:50:52;;;;;;;;;75.75;51.50;;;;;;;;5021025;28;51773;-42
2023/02/20 12:53:37;;;;;;;;;76.25;54.75;;;;;;;;5017428;28;51019;-46
2023/02/20 12:56:27;;;;;;;;;72.00;48.50;;;;;;;;5022889;28;51082;-43
2023/02/20 12:59:21;;;;;;;;;81.00;53.50;;;;;;;;5022976;28;51115;-43
2023/02/20 13:02:22;;;;;;;;;77.25;52.25;;;;;;;;5023052;28;51692;-42
2023/02/20 13:05:08;;;;;;;;;77.25;53.00;;;;;;;;5022710;28;52255;-41
2023/02/20 13:08:00;;;;;;;;;75.00;53.50;;;;;;;;5022631;28;51125;-42
2023/02/20 13:10:47;;;;;;;;;75.00;58.75;;;;;;;;5022537;28;51359;-44
2023/02/20 13:13:51;;;;;;;;;73.00;53.00;;;;;;;;4960671;28;51131;-42
2023/02/20 13:16:58;;;;;;;;;72.50;51.50;;;;;;;;4959081;28;51615;-44
2023/02/20 13:19:53;;;;;;;;;76.75;52.25;;;;;;;;4965793;28;51193;-44
2023/02/20 13:22:38;;;;;;;;;74.50;49.50;;;;;;;;4980198;28;51155;-43
2023/02/20 13:25:31;;;;;;;;;76.25;54.25;;;;;;;;4974450;28;51120;-43
2023/02/20 13:28:27;;;;;;;;;78.25;54.25;;;;;;;;4980636;28;51175;-42
2023/02/20 13:31:23;;;;;;;;;71.75;52.75;;;;;;;;4979172;28;52179;-42
2023/02/20 13:34:07;;;;;;;;;74.50;52.00;;;;;;;;4953813;28;51219;-44
2023/02/20 13:36:51;;;;;;;;;73.50;51.75;;;;;;;;4980004;28;51408;-43
2023/02/20 13:39:37;;;;;;;;;85.25;59.00;;;;;;;;4980211;28;51169;-43
2023/02/20 13:42:31;;;;;;;;;74.50;52.25;;;;;;;;4977076;28;51136;-43
2023/02/20 13:45:48;;;;;;;;;76.25;56.25;;;;;;;;4974894;28;51227;-43
2023/02/20 13:48:32;;;;;;;;;71.75;53.75;;;;;;;;4999413;28;51089;-42
2023/02/20 13:51:21;;;;;;;;;75.50;53.25;;;;;;;;5038096;28;51090;-42
2023/02/20 13:54:21;;;;;;;;;73.50;49.50;;;;;;;;5025709;28;51170;-42
2023/02/20 13:57:13;;;;;;;;;75.25;56.00;;;;;;;;5041490;28;51137;-43
2023/02/20 13:59:57;;;;;;;;;74.00;49.25;;;;;;;;5039539;28;51334;-44
2023/02/20 14:02:41;;;;;;;;;74.50;53.00;;;;;;;;5041452;28;51462;-44
2023/02/20 14:05:29;;;;;;;;;75.75;53.00;;;;;;;;5042608;28;51128;-41
2023/02/20 14:08:17;;;;;;;;;72.50;50.50;;;;;;;;5038770;28;51586;-42
2023/02/20 14:11:05;;;;;;;;;73.75;51.50;;;;;;;;5030222;28;51384;-42
2023/02/20 14:13:51;;;;;;;;;76.25;52.50;;;;;;;;5030977;28;51140;-42
2023/02/20 14:16:39;;;;;;;;;73.25;54.75;;;;;;;;5032882;28;51032;-43
2023/02/20 14:19:25;;;;;;;;;75.50;55.50;;;;;;;;5040930;28;51112;-43
2023/02/20 14:22:19;;;;;;;;;72.00;52.50;;;;;;;;5041090;28;51193;-42
2023/02/20 14:25:23;;;;;;;;;70.25;47.75;;;;;;;;5023730;28;51100;-43
2023/02/20 14:28:12;;;;;;;;;79.75;56.00;;;;;;;;5019826;28;51379;-43
2023/02/20 14:31:26;;;;;;;;;77.00;56.50;;;;;;;;5021175;28;51263;-44
2023/02/20 14:34:15;;;;;;;;;74.50;51.00;;;;;;;;4999943;28;51382;-44
2023/02/20 14:39:54;;;;;;;;;78.25;56.25;;;;;;;;4995518;28;51245;-44
2023/02/20 14:42:42;;;;;;;;;74.25;51.00;;;;;;;;5009758;28;51447;-41
2023/02/20 14:45:26;;;;;;;;;78.00;53.25;;;;;;;;5008819;28;51056;-46
2023/02/20 14:48:24;;;;;;;;;75.75;52.75;;;;;;;;4994734;28;51173;-42
2023/02/20 14:51:14;;;;;;;;;73.25;48.75;;;;;;;;4999240;28;51414;-42
2023/02/20 14:54:10;;;;;;;;;72.25;50.50;;;;;;;;4996164;28;51187;-42
2023/02/20 14:56:55;;;;;;;;;79.25;54.00;;;;;;;;4995788;28;51109;-55
2023/02/20 14:59:40;;;;;;;;;77.50;56.25;;;;;;;;4990774;28;52139;-42
2023/02/20 15:02:26;;;;;;;;;77.75;56.75;;;;;;;;4983970;28;51185;-46
2023/02/20 15:05:15;;;;;;;;;76.50;55.25;;;;;;;;5002410;28;51152;-45
2023/02/20 15:08:19;;;;;;;;;72.75;55.50;;;;;;;;4992020;28;51600;-46
2023/02/20 15:13:50;;;;;;;;;67.75;46.25;;;;;;;;4949174;28;52250;-43
2023/02/20 15:17:10;;;;;;;;;77.75;53.50;;;;;;;;4925523;28;51149;-45
2023/02/20 15:21:56;;;;;;;;;76.00;53.25;;;;;;;;4291045;32;2185990;-49
2023/02/20 15:24:48;;;;;;;;;73.75;52.50;;;;;;;;5062566;28;51032;-51
2023/02/20 15:27:33;;;;;;;;;70.75;49.00;;;;;;;;5068563;28;51131;-48
2023/02/20 15:30:18;;;;;;;;;73.00;56.25;;;;;;;;5069380;28;51182;-47
2023/02/20 15:33:02;;;;;;;;;74.75;56.00;;;;;;;;5067586;28;51773;-51
2023/02/20 15:35:48;;;;;;;;;79.25;56.25;;;;;;;;5067854;28;51590;-50
2023/02/20 15:38:33;;;;;;;;;77.00;55.00;;;;;;;;5063592;28;51072;-50
2023/02/20 15:44:03;;;;;;;;;69.00;50.50;;;;;;;;5027804;28;51340;-52
2023/02/20 15:46:47;;;;;;;;;69.75;51.75;;;;;;;;5013741;28;51045;-52
2023/02/20 15:49:32;;;;;;;;;73.75;53.50;;;;;;;;5013419;28;51190;-50
2023/02/20 15:52:17;;;;;;;;;75.50;55.00;;;;;;;;5013711;28;51238;-50
2023/02/20 15:55:02;;;;;;;;;72.00;48.75;;;;;;;;5013758;28;51272;-51
2023/02/20 15:57:47;;;;;;;;;72.25;50.25;;;;;;;;5010528;28;51139;-50
2023/02/20 16:00:32;;;;;;;;;63.50;46.50;;;;;;;;5032151;28;51166;-49
2023/02/20 16:03:16;;;;;;;;;72.75;51.75;;;;;;;;5022549;28;51200;-48
2023/02/20 16:06:01;;;;;;;;;67.50;46.75;;;;;;;;5018233;28;51394;-49
2023/02/20 16:08:45;;;;;;;;;71.50;46.25;;;;;;;;5011272;28;51729;-49
2023/02/20 16:11:37;;;;;;;;;74.50;55.75;;;;;;;;5028132;28;51159;-49
2023/02/20 16:14:21;;;;;;;;;74.00;50.75;;;;;;;;5013515;28;51220;-51
2023/02/20 16:17:05;;;;;;;;;72.75;50.50;;;;;;;;5017603;28;52548;-50
2023/02/20 16:19:49;;;;;;;;;66.25;47.25;;;;;;;;5022205;28;51130;-51
2023/02/20 16:22:34;;;;;;;;;77.75;50.00;;;;;;;;5096299;27;51599;-49
2023/02/20 16:25:20;;;;;;;;;73.25;50.00;;;;;;;;5092034;27;51122;-46
2023/02/20 16:28:05;;;;;;;;;72.50;49.25;;;;;;;;5096685;27;51106;-48
2023/02/20 16:30:49;;;;;;;;;71.25;47.75;;;;;;;;5094445;27;51549;-48
2023/02/20 16:33:33;;;;;;;;;58.25;46.25;;;;;;;;5084656;27;51591;-51
2023/02/20 16:36:18;;;;;;;;;65.75;46.00;;;;;;;;5082728;27;51021;-53
2023/02/20 16:39:02;;;;;;;;;70.75;50.00;;;;;;;;5082786;27;51015;-48
2023/02/20 16:41:46;;;;;;;;;69.50;49.50;;;;;;;;5081049;27;51152;-51
2023/02/20 16:44:36;;;;;;;;;70.00;48.50;;;;;;;;5082643;27;51431;-51
2023/02/20 16:47:22;;;;;;;;;73.25;50.25;;;;;;;;5082351;27;51115;-51
2023/02/20 16:50:10;;;;;;;;;71.75;49.75;;;;;;;;5082113;27;51179;-51
2023/02/20 16:52:56;;;;;;;;;68.50;48.75;;;;;;;;5082480;27;52062;-51
2023/02/20 16:55:41;;;;;;;;;68.25;48.75;;;;;;;;5081999;27;51147;-51